createdAt,value
2023-05-08T00:00:53.441Z,3.90
2023-05-08T00:01:53.412Z,4.10
2023-05-08T00:02:53.454Z,3.80
2023-05-08T00:03:53.716Z,4.30
2023-05-08T00:04:53.485Z,4.60
2023-05-08T00:05:53.375Z,3.80
2023-05-08T00:06:53.374Z,3.90
2023-05-08T00:07:53.370Z,4.20
2023-05-08T00:08:53.350Z,4.00
2023-05-08T00:09:53.355Z,3.70
2023-05-08T00:10:53.332Z,3.70
2023-05-08T00:11:53.316Z,3.60
2023-05-08T00:12:53.329Z,4.00
2023-05-08T00:13:53.292Z,4.30
2023-05-08T00:14:53.303Z,4.20
2023-05-08T00:15:53.277Z,3.90
2023-05-08T00:16:53.294Z,3.90
2023-05-08T00:17:53.291Z,4.40
2023-05-08T00:18:53.271Z,4.00
2023-05-08T00:19:53.270Z,4.00
2023-05-08T00:20:53.269Z,4.20
2023-05-08T00:21:53.221Z,3.90
2023-05-08T00:22:53.200Z,3.90
2023-05-08T00:23:53.219Z,3.80
2023-05-08T00:24:53.187Z,3.80
2023-05-08T00:25:53.177Z,4.10
2023-05-08T00:26:53.218Z,3.80
2023-05-08T00:27:53.146Z,4.20
2023-05-08T00:28:53.142Z,4.20
2023-05-08T00:29:53.128Z,4.10
2023-05-08T00:30:53.119Z,3.70
2023-05-08T00:31:53.147Z,3.80
2023-05-08T00:32:53.251Z,4.10
2023-05-08T00:33:53.088Z,4.00
2023-05-08T00:34:53.068Z,3.90
2023-05-08T00:35:53.084Z,3.90
2023-05-08T00:36:53.054Z,4.00
2023-05-08T00:37:53.045Z,3.80
2023-05-08T00:38:53.026Z,3.50
2023-05-08T00:39:53.030Z,4.30
2023-05-08T00:40:53.001Z,3.60
2023-05-08T00:41:53.020Z,3.40
2023-05-08T00:42:53.006Z,3.30
2023-05-08T00:43:52.987Z,3.30
2023-05-08T00:44:52.988Z,3.70
2023-05-08T00:45:52.992Z,3.60
2023-05-08T00:46:53.014Z,3.70
2023-05-08T00:47:53.598Z,3.60
2023-05-08T00:48:52.933Z,3.80
2023-05-08T00:49:52.911Z,4.40
2023-05-08T00:50:52.922Z,3.80
2023-05-08T00:51:52.909Z,4.20
2023-05-08T00:52:52.907Z,4.10
2023-05-08T00:53:52.869Z,4.00
2023-05-08T00:54:52.873Z,3.40
2023-05-08T00:55:52.886Z,4.00
2023-05-08T00:56:52.860Z,4.10
2023-05-08T00:57:52.853Z,3.90
2023-05-08T00:58:52.829Z,4.00
2023-05-08T00:59:52.854Z,3.40
2023-05-08T01:00:52.831Z,3.60
2023-05-08T01:01:52.933Z,3.80
2023-05-08T01:02:52.831Z,3.90
2023-05-08T01:03:52.913Z,3.80
2023-05-08T01:04:52.788Z,3.90
2023-05-08T01:05:52.784Z,4.00
2023-05-08T01:06:52.761Z,4.00
2023-05-08T01:07:52.737Z,4.10
2023-05-08T01:08:52.730Z,4.20
2023-05-08T01:09:52.725Z,4.30
2023-05-08T01:10:52.718Z,4.30
2023-05-08T01:11:52.706Z,4.60
2023-05-08T01:12:52.777Z,4.70
2023-05-08T01:13:52.672Z,4.40
2023-05-08T01:14:52.696Z,4.60
2023-05-08T01:15:52.675Z,5.20
2023-05-08T01:16:52.663Z,5.20
2023-05-08T01:17:52.686Z,4.90
2023-05-08T01:18:52.623Z,5.00
2023-05-08T01:19:52.627Z,5.30
2023-05-08T01:20:52.599Z,5.10
2023-05-08T01:21:52.595Z,5.00
2023-05-08T01:22:52.603Z,4.70
2023-05-08T01:23:52.621Z,4.40
2023-05-08T01:24:52.632Z,4.70
2023-05-08T01:25:52.563Z,5.10
2023-05-08T01:26:52.553Z,4.70
2023-05-08T01:27:52.534Z,4.80
2023-05-08T01:28:52.540Z,5.10
2023-05-08T01:29:52.504Z,4.50
2023-05-08T01:30:52.550Z,4.50
2023-05-08T01:31:52.483Z,5.40
2023-05-08T01:32:52.522Z,4.80
2023-05-08T01:33:52.528Z,4.60
2023-05-08T01:34:52.467Z,4.30
2023-05-08T01:35:52.445Z,4.70
2023-05-08T01:36:52.432Z,4.10
2023-05-08T01:37:52.446Z,3.90
2023-05-08T01:38:52.448Z,4.10
2023-05-08T01:39:52.411Z,4.40
2023-05-08T01:40:52.405Z,4.30
2023-05-08T01:41:52.385Z,4.00
2023-05-08T01:42:52.415Z,4.30
2023-05-08T01:43:52.374Z,4.20
2023-05-08T01:44:52.373Z,4.30
2023-05-08T01:45:52.332Z,3.90
2023-05-08T01:46:52.371Z,3.90
2023-05-08T01:47:52.397Z,4.00
2023-05-08T01:48:52.309Z,4.80
2023-05-08T01:49:52.301Z,4.20
2023-05-08T01:50:52.306Z,4.10
2023-05-08T01:51:52.289Z,4.40
2023-05-08T01:52:52.299Z,4.50
2023-05-08T01:53:52.316Z,4.30
2023-05-08T01:54:52.318Z,4.30
2023-05-08T01:55:52.287Z,4.60
2023-05-08T01:56:52.310Z,4.50
2023-05-08T01:57:52.209Z,4.40
2023-05-08T01:58:52.228Z,4.10
2023-05-08T01:59:52.206Z,4.30
2023-05-08T02:00:52.221Z,4.30
2023-05-08T02:01:52.211Z,4.20
2023-05-08T02:02:52.319Z,4.70
2023-05-08T02:03:52.230Z,4.30
2023-05-08T02:04:52.153Z,4.60
2023-05-08T02:05:52.206Z,4.20
2023-05-08T02:06:52.151Z,4.80
2023-05-08T02:07:52.120Z,4.60
2023-05-08T02:08:52.134Z,4.30
2023-05-08T02:09:52.117Z,4.30
2023-05-08T02:10:52.108Z,4.80
2023-05-08T02:11:52.077Z,4.40
2023-05-08T02:12:52.093Z,4.70
2023-05-08T02:13:52.054Z,4.50
2023-05-08T02:14:52.052Z,4.50
2023-05-08T02:15:52.056Z,4.80
2023-05-08T02:16:52.054Z,4.60
2023-05-08T02:17:52.047Z,4.10
2023-05-08T02:18:52.010Z,4.30
2023-05-08T02:19:52.007Z,4.10
2023-05-08T02:20:52.001Z,4.30
2023-05-08T02:21:51.996Z,4.30
2023-05-08T02:22:51.962Z,4.50
2023-05-08T02:23:51.945Z,4.30
2023-05-08T02:24:51.965Z,4.30
2023-05-08T02:25:51.922Z,4.50
2023-05-08T02:26:51.920Z,4.00
2023-05-08T02:27:51.920Z,4.00
2023-05-08T02:28:51.897Z,3.80
2023-05-08T02:29:51.912Z,4.10
2023-05-08T02:30:51.869Z,3.70
2023-05-08T02:31:51.910Z,3.80
2023-05-08T02:32:51.871Z,4.50
2023-05-08T02:33:51.867Z,4.10
2023-05-08T02:35:02.535Z,4.00
2023-05-08T02:35:51.825Z,3.90
2023-05-08T02:36:51.831Z,3.90
2023-05-08T02:37:51.815Z,3.70
2023-05-08T02:38:51.830Z,4.20
2023-05-08T02:39:51.811Z,4.30
2023-05-08T02:40:51.777Z,4.30
2023-05-08T02:41:51.772Z,3.90
2023-05-08T02:42:51.768Z,4.30
2023-05-08T02:43:51.779Z,4.20
2023-05-08T02:44:51.736Z,4.10
2023-05-08T02:45:51.751Z,3.80
2023-05-08T02:46:51.728Z,3.90
2023-05-08T02:47:51.764Z,3.80
2023-05-08T02:48:51.706Z,3.90
2023-05-08T02:49:51.677Z,4.00
2023-05-08T02:50:51.671Z,3.60
2023-05-08T02:51:51.659Z,4.00
2023-05-08T02:52:51.658Z,4.00
2023-05-08T02:53:51.649Z,3.50
2023-05-08T02:54:51.646Z,3.70
2023-05-08T02:55:51.629Z,4.00
2023-05-08T02:56:51.612Z,4.50
2023-05-08T02:57:51.604Z,4.00
2023-05-08T02:58:51.589Z,4.20
2023-05-08T02:59:51.576Z,3.70
2023-05-08T03:00:51.585Z,4.00
2023-05-08T03:01:51.644Z,3.70
2023-05-08T03:02:51.585Z,3.60
2023-05-08T03:03:51.669Z,3.60
2023-05-08T03:04:51.619Z,3.80
2023-05-08T03:05:51.509Z,3.80
2023-05-08T03:06:51.534Z,3.90
2023-05-08T03:07:51.480Z,4.10
2023-05-08T03:08:51.493Z,3.90
2023-05-08T03:09:51.473Z,3.70
2023-05-08T03:10:51.462Z,4.60
2023-05-08T03:11:51.471Z,4.00
2023-05-08T03:12:51.455Z,3.60
2023-05-08T03:13:51.443Z,3.70
2023-05-08T03:14:51.438Z,4.10
2023-05-08T03:15:51.435Z,3.70
2023-05-08T03:16:51.417Z,3.60
2023-05-08T03:17:51.420Z,3.60
2023-05-08T03:18:51.378Z,4.10
2023-05-08T03:19:51.370Z,3.50
2023-05-08T03:20:51.379Z,3.70
2023-05-08T03:21:51.348Z,3.80
2023-05-08T03:22:51.350Z,3.80
2023-05-08T03:23:51.312Z,4.00
2023-05-08T03:24:51.334Z,3.90
2023-05-08T03:25:51.313Z,4.50
2023-05-08T03:26:51.312Z,4.40
2023-05-08T03:27:51.293Z,4.20
2023-05-08T03:28:51.268Z,4.00
2023-05-08T03:29:51.224Z,4.00
2023-05-08T03:30:51.222Z,4.00
2023-05-08T03:31:51.206Z,3.60
2023-05-08T03:32:51.272Z,3.80
2023-05-08T03:33:51.155Z,3.60
2023-05-08T03:34:51.173Z,3.70
2023-05-08T03:35:51.132Z,3.60
2023-05-08T03:36:51.141Z,3.80
2023-05-08T03:37:51.123Z,3.90
2023-05-08T03:38:51.138Z,3.10
2023-05-08T03:39:51.117Z,3.50
2023-05-08T03:40:51.110Z,4.00
2023-05-08T03:41:51.089Z,4.20
2023-05-08T03:42:51.092Z,4.10
2023-05-08T03:43:51.075Z,3.80
2023-05-08T03:44:51.062Z,3.60
2023-05-08T03:45:51.044Z,3.80
2023-05-08T03:46:51.225Z,3.90
2023-05-08T03:47:51.059Z,3.50
2023-05-08T03:48:51.028Z,3.70
2023-05-08T03:49:51.007Z,3.90
2023-05-08T03:50:50.997Z,4.10
2023-05-08T03:51:50.998Z,4.30
2023-05-08T03:52:50.982Z,4.10
2023-05-08T03:53:50.991Z,3.90
2023-05-08T03:54:50.954Z,3.60
2023-05-08T03:55:50.941Z,3.90
2023-05-08T03:56:50.936Z,4.00
2023-05-08T03:57:50.948Z,4.00
2023-05-08T03:58:50.908Z,4.00
2023-05-08T03:59:50.918Z,4.00
2023-05-08T04:00:50.907Z,3.90
2023-05-08T04:01:50.925Z,3.60
2023-05-08T04:02:50.963Z,3.90
2023-05-08T04:03:50.944Z,4.10
2023-05-08T04:04:50.856Z,4.00
2023-05-08T04:05:50.938Z,3.50
2023-05-08T04:06:51.170Z,3.70
2023-05-08T04:07:50.871Z,4.00
2023-05-08T04:08:50.814Z,3.70
2023-05-08T04:09:50.796Z,4.00
2023-05-08T04:10:50.796Z,3.70
2023-05-08T04:11:50.787Z,3.40
2023-05-08T04:12:50.795Z,4.00
2023-05-08T04:13:50.761Z,4.00
2023-05-08T04:14:50.758Z,3.70
2023-05-08T04:15:50.742Z,3.50
2023-05-08T04:16:50.781Z,3.80
2023-05-08T04:17:50.758Z,3.90
2023-05-08T04:18:50.709Z,4.30
2023-05-08T04:19:50.713Z,4.10
2023-05-08T04:20:50.694Z,4.20
2023-05-08T04:21:50.797Z,4.10
2023-05-08T04:22:50.666Z,4.60
2023-05-08T04:23:50.687Z,4.50
2023-05-08T04:24:50.649Z,4.10
2023-05-08T04:25:50.672Z,4.30
2023-05-08T04:26:50.631Z,4.00
2023-05-08T04:27:50.638Z,4.00
2023-05-08T04:28:50.631Z,4.30
2023-05-08T04:29:50.632Z,3.80
2023-05-08T04:30:50.610Z,4.30
2023-05-08T04:31:50.646Z,4.10
2023-05-08T04:32:50.636Z,4.10
2023-05-08T04:33:50.576Z,4.40
2023-05-08T04:34:50.577Z,4.50
2023-05-08T04:35:50.531Z,4.30
2023-05-08T04:36:50.535Z,4.60
2023-05-08T04:37:50.533Z,4.60
2023-05-08T04:38:50.502Z,4.70
2023-05-08T04:39:50.514Z,4.90
2023-05-08T04:40:50.495Z,4.90
2023-05-08T04:41:50.494Z,4.80
2023-05-08T04:42:50.475Z,4.80
2023-05-08T04:43:50.490Z,4.90
2023-05-08T04:44:50.470Z,5.00
2023-05-08T04:45:50.455Z,4.90
2023-05-08T04:46:50.421Z,5.70
2023-05-08T04:47:50.506Z,5.20
2023-05-08T04:48:50.431Z,5.20
2023-05-08T04:49:50.399Z,5.20
2023-05-08T04:50:50.386Z,5.40
2023-05-08T04:51:50.394Z,5.20
2023-05-08T04:52:50.385Z,5.50
2023-05-08T04:53:50.378Z,5.50
2023-05-08T04:54:50.341Z,5.60
2023-05-08T04:55:50.325Z,5.10
2023-05-08T04:56:50.328Z,5.30
2023-05-08T04:57:50.333Z,5.30
2023-05-08T04:58:50.329Z,5.20
2023-05-08T04:59:50.310Z,5.70
2023-05-08T05:00:50.276Z,5.00
2023-05-08T05:01:50.280Z,6.10
2023-05-08T05:02:50.308Z,5.40
2023-05-08T05:03:50.272Z,5.60
2023-05-08T05:04:50.245Z,5.20
2023-05-08T05:05:50.238Z,5.40
2023-05-08T05:06:50.238Z,5.60
2023-05-08T05:07:50.260Z,5.50
2023-05-08T05:08:50.210Z,5.50
2023-05-08T05:09:50.202Z,5.60
2023-05-08T05:10:50.177Z,5.80
2023-05-08T05:11:50.186Z,5.70
2023-05-08T05:12:50.221Z,5.50
2023-05-08T05:13:50.152Z,5.40
2023-05-08T05:14:50.122Z,5.60
2023-05-08T05:15:50.194Z,5.20
2023-05-08T05:16:50.124Z,5.10
2023-05-08T05:17:50.104Z,5.30
2023-05-08T05:18:50.082Z,5.70
2023-05-08T05:19:51.573Z,5.60
2023-05-08T05:20:50.070Z,5.90
2023-05-08T05:21:50.066Z,5.20
2023-05-08T05:22:50.060Z,5.40
2023-05-08T05:23:50.061Z,5.70
2023-05-08T05:24:50.033Z,5.60
2023-05-08T05:25:50.039Z,5.20
2023-05-08T05:26:50.010Z,5.30
2023-05-08T05:27:49.994Z,5.50
2023-05-08T05:28:49.998Z,5.70
2023-05-08T05:29:49.999Z,5.20
2023-05-08T05:30:50.001Z,5.10
2023-05-08T05:31:50.026Z,5.50
2023-05-08T05:32:50.008Z,5.30
2023-05-08T05:33:49.963Z,5.90
2023-05-08T05:34:49.975Z,5.20
2023-05-08T05:35:49.931Z,5.40
2023-05-08T05:36:49.912Z,5.70
2023-05-08T05:37:49.893Z,5.60
2023-05-08T05:38:49.900Z,5.50
2023-05-08T05:39:49.900Z,5.20
2023-05-08T05:40:49.843Z,6.00
2023-05-08T05:41:49.840Z,5.50
2023-05-08T05:42:49.838Z,5.10
2023-05-08T05:43:49.963Z,5.40
2023-05-08T05:44:49.830Z,5.80
2023-05-08T05:45:49.804Z,5.50
2023-05-08T05:46:49.783Z,5.20
2023-05-08T05:47:50.064Z,5.90
2023-05-08T05:48:49.785Z,5.80
2023-05-08T05:49:49.800Z,5.80
2023-05-08T05:50:49.764Z,5.70
2023-05-08T05:51:49.747Z,5.70
2023-05-08T05:52:49.740Z,5.60
2023-05-08T05:53:49.733Z,5.80
2023-05-08T05:54:49.718Z,5.40
2023-05-08T05:55:49.704Z,5.70
2023-05-08T05:56:49.691Z,6.10
2023-05-08T05:57:49.699Z,5.50
2023-05-08T05:58:49.705Z,5.30
2023-05-08T05:59:49.665Z,5.90
2023-05-08T06:00:49.644Z,5.40
2023-05-08T06:01:49.663Z,5.60
2023-05-08T06:02:49.868Z,5.60
2023-05-08T06:03:49.790Z,5.50
2023-05-08T06:04:49.686Z,5.40
2023-05-08T06:05:49.608Z,5.80
2023-05-08T06:06:49.580Z,5.50
2023-05-08T06:07:49.634Z,5.30
2023-05-08T06:08:49.571Z,5.50
2023-05-08T06:09:49.554Z,5.80
2023-05-08T06:10:49.564Z,5.50
2023-05-08T06:11:49.529Z,5.80
2023-05-08T06:12:49.568Z,6.00
2023-05-08T06:13:50.696Z,5.90
2023-05-08T06:14:49.517Z,5.40
2023-05-08T06:15:49.493Z,5.10
2023-05-08T06:16:49.540Z,5.10
2023-05-08T06:17:49.532Z,5.80
2023-05-08T06:18:49.473Z,5.50
2023-05-08T06:19:49.460Z,5.40
2023-05-08T06:20:49.449Z,5.50
2023-05-08T06:21:49.440Z,5.60
2023-05-08T06:22:49.438Z,5.30
2023-05-08T06:23:49.427Z,5.50
2023-05-08T06:24:49.418Z,6.00
2023-05-08T06:25:49.400Z,4.90
2023-05-08T06:26:49.396Z,5.40
2023-05-08T06:27:49.382Z,5.40
2023-05-08T06:28:49.366Z,5.00
2023-05-08T06:29:49.367Z,5.30
2023-05-08T06:30:49.437Z,6.00
2023-05-08T06:31:49.346Z,5.80
2023-05-08T06:32:49.376Z,5.10
2023-05-08T06:33:49.312Z,4.60
2023-05-08T06:34:49.283Z,4.60
2023-05-08T06:35:49.328Z,4.80
2023-05-08T06:36:49.314Z,5.00
2023-05-08T06:37:49.302Z,5.40
2023-05-08T06:38:49.265Z,5.40
2023-05-08T06:39:52.554Z,5.00
2023-05-08T06:40:49.283Z,4.80
2023-05-08T06:41:49.236Z,5.30
2023-05-08T06:42:49.223Z,5.10
2023-05-08T06:43:49.208Z,5.10
2023-05-08T06:44:49.207Z,5.30
2023-05-08T06:45:49.206Z,5.70
2023-05-08T06:46:49.209Z,5.20
2023-05-08T06:47:49.226Z,4.90
2023-05-08T06:48:49.171Z,5.40
2023-05-08T06:49:49.145Z,5.00
2023-05-08T06:50:49.150Z,5.00
2023-05-08T06:51:49.115Z,5.20
2023-05-08T06:52:49.166Z,5.30
2023-05-08T06:53:49.107Z,3.90
2023-05-08T06:54:49.105Z,5.50
2023-05-08T06:55:49.114Z,5.10
2023-05-08T06:56:49.062Z,5.70
2023-05-08T06:57:49.076Z,6.00
2023-05-08T06:58:57.087Z,5.60
2023-05-08T06:59:49.095Z,5.40
2023-05-08T07:00:49.045Z,5.00
2023-05-08T07:01:49.050Z,5.30
2023-05-08T07:02:49.023Z,5.60
2023-05-08T07:03:49.001Z,5.30
2023-05-08T07:04:49.231Z,5.60
2023-05-08T07:05:48.988Z,5.40
2023-05-08T07:06:48.969Z,5.10
2023-05-08T07:07:48.973Z,5.40
2023-05-08T07:08:48.962Z,5.20
2023-05-08T07:09:48.941Z,5.00
2023-05-08T07:10:48.974Z,5.80
2023-05-08T07:11:48.946Z,5.40
2023-05-08T07:12:48.974Z,5.20
2023-05-08T07:13:48.901Z,5.60
2023-05-08T07:14:48.867Z,5.80
2023-05-08T07:15:48.900Z,5.70
2023-05-08T07:16:48.856Z,6.00
2023-05-08T07:17:48.901Z,5.30
2023-05-08T07:18:48.828Z,6.00
2023-05-08T07:19:48.826Z,5.10
2023-05-08T07:20:48.851Z,5.50
2023-05-08T07:21:48.887Z,5.30
2023-05-08T07:22:48.838Z,4.60
2023-05-08T07:23:48.853Z,5.00
2023-05-08T07:24:48.801Z,4.70
2023-05-08T07:25:48.793Z,4.80
2023-05-08T07:26:48.784Z,4.70
2023-05-08T07:27:48.790Z,4.60
2023-05-08T07:28:48.771Z,4.70
2023-05-08T07:29:48.776Z,4.80
2023-05-08T07:30:48.770Z,4.40
2023-05-08T07:31:48.837Z,4.80
2023-05-08T07:32:48.749Z,5.00
2023-05-08T07:33:48.698Z,4.30
2023-05-08T07:34:48.715Z,4.60
2023-05-08T07:35:48.687Z,4.20
2023-05-08T07:36:48.662Z,4.30
2023-05-08T07:37:48.657Z,4.40
2023-05-08T07:38:48.625Z,3.90
2023-05-08T07:39:48.727Z,4.60
2023-05-08T07:40:48.632Z,4.60
2023-05-08T07:41:49.922Z,4.30
2023-05-08T07:42:48.592Z,4.30
2023-05-08T07:43:48.582Z,4.70
2023-05-08T07:44:54.868Z,5.10
2023-05-08T07:45:48.577Z,4.40
2023-05-08T07:46:48.621Z,4.70
2023-05-08T07:47:48.621Z,4.70
2023-05-08T07:48:48.529Z,3.80
2023-05-08T07:49:48.535Z,4.30
2023-05-08T07:50:48.505Z,4.70
2023-05-08T07:51:48.504Z,3.90
2023-05-08T07:52:50.105Z,4.50
2023-05-08T07:53:48.495Z,4.20
2023-05-08T07:54:48.489Z,3.80
2023-05-08T07:55:48.463Z,4.20
2023-05-08T07:56:48.440Z,4.10
2023-05-08T07:57:48.454Z,3.70
2023-05-08T07:58:48.503Z,3.70
2023-05-08T07:59:48.420Z,3.80
2023-05-08T08:00:48.410Z,3.30
2023-05-08T08:01:48.386Z,3.70
2023-05-08T08:02:48.537Z,3.20
2023-05-08T08:03:48.479Z,3.30
2023-05-08T08:04:48.366Z,3.10
2023-05-08T08:05:48.351Z,3.40
2023-05-08T08:06:48.349Z,3.40
2023-05-08T08:07:48.348Z,3.20
2023-05-08T08:08:48.360Z,3.00
2023-05-08T08:09:48.301Z,2.80
2023-05-08T08:10:48.298Z,2.70
2023-05-08T08:11:48.303Z,2.70
2023-05-08T08:12:48.368Z,2.70
2023-05-08T08:13:48.258Z,3.20
2023-05-08T08:14:48.269Z,2.50
2023-05-08T08:15:48.246Z,2.80
2023-05-08T08:16:48.317Z,2.60
2023-05-08T08:17:48.261Z,2.50
2023-05-08T08:18:48.213Z,2.50
2023-05-08T08:19:48.219Z,2.90
2023-05-08T08:20:48.200Z,3.10
2023-05-08T08:21:48.189Z,2.50
2023-05-08T08:22:48.213Z,3.10
2023-05-08T08:23:48.170Z,3.10
2023-05-08T08:24:48.157Z,3.30
2023-05-08T08:25:48.152Z,3.40
2023-05-08T08:26:48.160Z,2.90
2023-05-08T08:27:48.132Z,3.40
2023-05-08T08:28:48.109Z,3.30
2023-05-08T08:29:48.099Z,3.20
2023-05-08T08:30:48.156Z,3.70
2023-05-08T08:31:48.123Z,3.80
2023-05-08T08:32:48.107Z,3.80
2023-05-08T08:33:48.063Z,3.30
2023-05-08T08:34:48.054Z,3.50
2023-05-08T08:35:48.049Z,2.90
2023-05-08T08:36:48.032Z,3.40
2023-05-08T08:37:48.009Z,3.50
2023-05-08T08:38:48.050Z,3.70
2023-05-08T08:39:48.038Z,3.40
2023-05-08T08:40:48.053Z,3.40
2023-05-08T08:41:47.979Z,3.40
2023-05-08T08:42:47.981Z,3.70
2023-05-08T08:43:47.982Z,3.80
2023-05-08T08:44:47.975Z,3.70
2023-05-08T08:45:47.957Z,3.70
2023-05-08T08:46:48.003Z,4.00
2023-05-08T08:47:48.061Z,3.90
2023-05-08T08:48:47.934Z,3.90
2023-05-08T08:49:47.912Z,3.90
2023-05-08T08:50:47.919Z,4.20
2023-05-08T08:51:47.886Z,4.10
2023-05-08T08:52:47.872Z,4.30
2023-05-08T08:53:47.876Z,4.40
2023-05-08T08:54:47.872Z,4.20
2023-05-08T08:55:47.838Z,3.90
2023-05-08T08:56:47.843Z,4.50
2023-05-08T08:57:47.829Z,4.10
2023-05-08T08:58:47.832Z,4.00
2023-05-08T08:59:47.808Z,4.00
2023-05-08T09:00:47.808Z,4.60
2023-05-08T09:01:47.807Z,3.90
2023-05-08T09:02:47.836Z,4.30
2023-05-08T09:03:49.766Z,4.10
2023-05-08T09:04:47.783Z,3.80
2023-05-08T09:05:47.760Z,4.10
2023-05-08T09:06:47.773Z,4.50
2023-05-08T09:07:47.787Z,3.80
2023-05-08T09:08:47.780Z,4.40
2023-05-08T09:09:47.750Z,3.80
2023-05-08T09:10:47.731Z,4.20
2023-05-08T09:11:47.724Z,4.00
2023-05-08T09:12:47.807Z,3.90
2023-05-08T09:13:47.697Z,3.70
2023-05-08T09:14:47.691Z,3.80
2023-05-08T09:15:47.663Z,3.70
2023-05-08T09:16:47.741Z,3.60
2023-05-08T09:17:47.716Z,3.60
2023-05-08T09:18:47.624Z,3.20
2023-05-08T09:19:47.588Z,3.90
2023-05-08T09:20:47.580Z,3.20
2023-05-08T09:21:47.588Z,3.40
2023-05-08T09:22:47.563Z,2.90
2023-05-08T09:23:47.561Z,3.30
2023-05-08T09:24:47.552Z,2.90
2023-05-08T09:25:47.532Z,3.30
2023-05-08T09:26:47.554Z,3.00
2023-05-08T09:27:47.529Z,3.30
2023-05-08T09:28:47.497Z,3.10
2023-05-08T09:29:47.535Z,2.80
2023-05-08T09:30:47.503Z,2.90
2023-05-08T09:31:47.559Z,2.90
2023-05-08T09:32:47.483Z,3.30
2023-05-08T09:33:47.436Z,3.20
2023-05-08T09:34:47.456Z,2.50
2023-05-08T09:35:47.422Z,3.00
2023-05-08T09:36:47.438Z,3.10
2023-05-08T09:37:47.555Z,2.90
2023-05-08T09:38:47.401Z,2.80
2023-05-08T09:39:47.380Z,2.90
2023-05-08T09:40:47.401Z,2.70
2023-05-08T09:41:47.375Z,2.90
2023-05-08T09:42:47.346Z,3.00
2023-05-08T09:43:47.354Z,2.90
2023-05-08T09:44:47.331Z,2.00
2023-05-08T09:45:47.372Z,2.80
2023-05-08T09:46:47.311Z,2.50
2023-05-08T09:47:47.332Z,2.30
2023-05-08T09:48:47.287Z,2.60
2023-05-08T09:49:47.313Z,2.80
2023-05-08T09:50:47.308Z,2.40
2023-05-08T09:51:47.267Z,2.70
2023-05-08T09:52:47.255Z,2.90
2023-05-08T09:53:47.271Z,2.30
2023-05-08T09:54:47.262Z,2.60
2023-05-08T09:55:47.223Z,2.10
2023-05-08T09:56:47.213Z,2.40
2023-05-08T09:57:47.180Z,2.10
2023-05-08T09:58:47.204Z,2.20
2023-05-08T09:59:47.172Z,2.30
2023-05-08T10:00:47.218Z,1.90
2023-05-08T10:01:47.188Z,2.30
2023-05-08T10:02:47.200Z,2.10
2023-05-08T10:03:47.196Z,2.20
2023-05-08T10:04:47.187Z,2.10
2023-05-08T10:05:47.129Z,1.90
2023-05-08T10:06:47.120Z,2.40
2023-05-08T10:07:47.084Z,2.20
2023-05-08T10:08:47.110Z,2.30
2023-05-08T10:09:50.716Z,1.80
2023-05-08T10:10:47.047Z,2.10
2023-05-08T10:11:47.036Z,2.00
2023-05-08T10:12:47.071Z,1.90
2023-05-08T10:13:47.037Z,1.80
2023-05-08T10:14:47.164Z,1.70
2023-05-08T10:15:46.994Z,1.50
2023-05-08T10:16:47.068Z,1.60
2023-05-08T10:17:47.008Z,1.40
2023-05-08T10:18:46.993Z,1.70
2023-05-08T10:19:46.975Z,1.40
2023-05-08T10:20:46.958Z,1.90
2023-05-08T10:21:46.954Z,1.60
2023-05-08T10:22:46.958Z,1.80
2023-05-08T10:23:46.939Z,1.20
2023-05-08T10:24:46.931Z,1.40
2023-05-08T10:25:46.899Z,1.50
2023-05-08T10:26:57.398Z,1.40
2023-05-08T10:27:46.909Z,1.70
2023-05-08T10:28:46.868Z,1.40
2023-05-08T10:29:46.863Z,1.50
2023-05-08T10:30:46.898Z,1.40
2023-05-08T10:31:46.831Z,1.60
2023-05-08T10:32:46.901Z,1.50
2023-05-08T10:33:46.822Z,1.60
2023-05-08T10:34:46.828Z,1.30
2023-05-08T10:35:46.807Z,1.70
2023-05-08T10:36:46.803Z,1.60
2023-05-08T10:37:46.778Z,1.40
2023-05-08T10:38:46.778Z,1.60
2023-05-08T10:39:46.760Z,1.50
2023-05-08T10:40:46.753Z,1.30
2023-05-08T10:41:46.752Z,1.40
2023-05-08T10:42:46.786Z,1.20
2023-05-08T10:43:46.717Z,1.20
2023-05-08T10:44:46.720Z,1.40
2023-05-08T10:45:46.711Z,1.60
2023-05-08T10:46:46.752Z,1.50
2023-05-08T10:47:48.617Z,1.60
2023-05-08T10:48:46.697Z,1.50
2023-05-08T10:49:46.671Z,1.40
2023-05-08T10:50:46.670Z,1.30
2023-05-08T10:51:46.620Z,1.00
2023-05-08T10:52:46.653Z,1.40
2023-05-08T10:53:46.618Z,1.40
2023-05-08T10:54:46.625Z,1.20
2023-05-08T10:55:46.592Z,1.20
2023-05-08T10:56:46.590Z,1.10
2023-05-08T10:57:46.571Z,1.40
2023-05-08T10:58:46.579Z,1.30
2023-05-08T10:59:46.597Z,1.20
2023-05-08T11:00:46.573Z,1.20
2023-05-08T11:01:46.570Z,1.30
2023-05-08T11:02:46.701Z,1.30
2023-05-08T11:03:46.630Z,1.00
2023-05-08T11:04:46.604Z,1.70
2023-05-08T11:05:46.534Z,2.00
2023-05-08T11:06:46.520Z,1.50
2023-05-08T11:07:46.491Z,1.70
2023-05-08T11:08:46.454Z,1.20
2023-05-08T11:09:46.464Z,1.10
2023-05-08T11:10:46.432Z,1.10
2023-05-08T11:11:46.413Z,1.00
2023-05-08T11:12:46.438Z,0.90
2023-05-08T11:13:46.427Z,1.10
2023-05-08T11:14:46.441Z,1.00
2023-05-08T11:15:46.414Z,1.40
2023-05-08T11:16:46.424Z,1.00
2023-05-08T11:17:46.384Z,1.20
2023-05-08T11:18:49.693Z,1.20
2023-05-08T11:19:46.344Z,1.30
2023-05-08T11:20:46.323Z,1.30
2023-05-08T11:21:46.320Z,1.20
2023-05-08T11:22:46.322Z,1.40
2023-05-08T11:23:46.307Z,1.30
2023-05-08T11:24:46.296Z,1.40
2023-05-08T11:25:46.303Z,1.40
2023-05-08T11:26:46.279Z,1.30
2023-05-08T11:27:46.269Z,1.50
2023-05-08T11:28:46.264Z,1.30
2023-05-08T11:29:46.223Z,1.30
2023-05-08T11:30:46.231Z,1.20
2023-05-08T11:31:46.257Z,1.40
2023-05-08T11:32:46.245Z,1.50
2023-05-08T11:33:46.184Z,1.60
2023-05-08T11:34:46.203Z,1.40
2023-05-08T11:35:46.191Z,1.50
2023-05-08T11:36:46.173Z,1.60
2023-05-08T11:37:46.182Z,1.50
2023-05-08T11:38:46.169Z,1.10
2023-05-08T11:39:46.160Z,1.30
2023-05-08T11:40:46.227Z,1.30
2023-05-08T11:41:46.161Z,1.40
2023-05-08T11:42:46.137Z,1.60
2023-05-08T11:43:46.092Z,1.40
2023-05-08T11:44:46.093Z,1.40
2023-05-08T11:45:46.084Z,1.30
2023-05-08T11:46:46.128Z,1.50
2023-05-08T11:47:46.127Z,1.60
2023-05-08T11:48:46.039Z,1.80
2023-05-08T11:49:46.047Z,1.40
2023-05-08T11:50:46.028Z,1.30
2023-05-08T11:51:46.025Z,1.40
2023-05-08T11:52:46.020Z,1.40
2023-05-08T11:53:45.997Z,1.50
2023-05-08T11:54:45.986Z,1.60
2023-05-08T11:55:45.977Z,1.60
2023-05-08T11:56:47.713Z,1.30
2023-05-08T11:57:45.956Z,1.30
2023-05-08T11:58:45.943Z,1.50
2023-05-08T11:59:45.925Z,1.60
2023-05-08T12:00:45.968Z,1.40
2023-05-08T12:01:53.578Z,1.40
2023-05-08T12:02:45.991Z,1.50
2023-05-08T12:03:45.994Z,1.50
2023-05-08T12:04:46.034Z,1.50
2023-05-08T12:05:45.875Z,1.30
2023-05-08T12:06:45.863Z,1.60
2023-05-08T12:07:45.846Z,1.60
2023-05-08T12:08:45.841Z,1.50
2023-05-08T12:09:45.832Z,1.20
2023-05-08T12:10:46.872Z,1.50
2023-05-08T12:11:45.794Z,1.40
2023-05-08T12:12:45.895Z,1.60
2023-05-08T12:13:45.923Z,1.70
2023-05-08T12:14:45.790Z,1.50
2023-05-08T12:15:45.761Z,1.80
2023-05-08T12:16:45.860Z,1.70
2023-05-08T12:17:45.773Z,1.80
2023-05-08T12:18:45.746Z,1.80
2023-05-08T12:19:45.747Z,1.70
2023-05-08T12:20:45.716Z,1.90
2023-05-08T12:21:45.744Z,1.80
2023-05-08T12:22:45.688Z,1.80
2023-05-08T12:23:45.705Z,2.10
2023-05-08T12:24:45.654Z,2.10
2023-05-08T12:25:45.674Z,2.00
2023-05-08T12:26:45.648Z,2.00
2023-05-08T12:27:45.636Z,2.10
2023-05-08T12:28:45.666Z,2.10
2023-05-08T12:29:45.641Z,2.40
2023-05-08T12:30:45.638Z,2.30
2023-05-08T12:31:45.687Z,2.10
2023-05-08T12:32:45.640Z,2.40
2023-05-08T12:33:45.584Z,2.30
2023-05-08T12:34:45.574Z,2.20
2023-05-08T12:35:45.548Z,2.60
2023-05-08T12:36:45.535Z,2.50
2023-05-08T12:37:45.546Z,2.50
2023-05-08T12:38:45.522Z,2.60
2023-05-08T12:39:45.524Z,2.40
2023-05-08T12:40:45.489Z,2.50
2023-05-08T12:41:45.498Z,2.40
2023-05-08T12:42:45.521Z,2.40
2023-05-08T12:43:45.490Z,2.60
2023-05-08T12:44:45.474Z,2.40
2023-05-08T12:45:45.464Z,2.60
2023-05-08T12:46:45.503Z,2.90
2023-05-08T12:47:45.487Z,2.70
2023-05-08T12:48:45.441Z,2.60
2023-05-08T12:49:45.422Z,2.30
2023-05-08T12:50:45.414Z,2.60
2023-05-08T12:51:45.411Z,3.10
2023-05-08T12:52:45.406Z,2.90
2023-05-08T12:53:45.393Z,2.70
2023-05-08T12:54:45.388Z,2.70
2023-05-08T12:55:45.365Z,3.30
2023-05-08T12:56:45.379Z,3.30
2023-05-08T12:57:45.362Z,3.40
2023-05-08T12:58:45.313Z,3.00
2023-05-08T12:59:45.315Z,2.70
2023-05-08T13:00:45.316Z,3.10
2023-05-08T13:01:45.328Z,3.00
2023-05-08T13:02:49.624Z,2.50
2023-05-08T13:03:47.218Z,3.20
2023-05-08T13:04:45.299Z,3.30
2023-05-08T13:05:45.282Z,3.10
2023-05-08T13:06:45.253Z,2.90
2023-05-08T13:07:45.230Z,3.20
2023-05-08T13:08:45.229Z,2.80
2023-05-08T13:09:45.212Z,2.60
2023-05-08T13:10:45.210Z,2.50
2023-05-08T13:11:45.189Z,2.50
2023-05-08T13:12:45.369Z,3.10
2023-05-08T13:13:45.164Z,2.40
2023-05-08T13:14:45.170Z,2.60
2023-05-08T13:15:45.153Z,2.50
2023-05-08T13:16:45.197Z,2.70
2023-05-08T13:17:45.165Z,2.30
2023-05-08T13:18:45.127Z,3.30